sensor_id;sensor_type;location;lat;lon;timestamp;pressure;altitude;pressure_sealevel;temperature;humidity
53916;BME280;39827;49.652;18.770;2023-05-03T00:01:15;74368.09;;;-149.71;81.01
53916;BME280;39827;49.652;18.770;2023-05-03T00:03:41;74374.13;;;-149.71;81.23
53916;BME280;39827;49.652;18.770;2023-05-03T00:06:11;74378.13;;;-149.71;81.29
53916;BME280;39827;49.652;18.770;2023-05-03T00:08:37;74396.22;;;-149.71;81.91
53916;BME280;39827;49.652;18.770;2023-05-03T00:11:03;74388.19;;;-149.71;82.01
53916;BME280;39827;49.652;18.770;2023-05-03T00:13:28;74388.19;;;-149.71;82.52
53916;BME280;39827;49.652;18.770;2023-05-03T00:15:54;74388.19;;;-149.71;81.75
53916;BME280;39827;49.652;18.770;2023-05-03T00:18:19;74390.19;;;-149.71;81.86
53916;BME280;39827;49.652;18.770;2023-05-03T00:20:45;74386.19;;;-149.71;82.05
53916;BME280;39827;49.652;18.770;2023-05-03T00:23:10;74380.16;;;-149.71;81.72
53916;BME280;39827;49.652;18.770;2023-05-03T00:25:35;74388.19;;;-149.71;82.20
53916;BME280;39827;49.652;18.770;2023-05-03T00:28:01;74372.13;;;-149.71;81.68
53916;BME280;39827;49.652;18.770;2023-05-03T00:30:26;74384.16;;;-149.71;81.74
53916;BME280;39827;49.652;18.770;2023-05-03T00:32:52;74396.22;;;-149.71;81.36
53916;BME280;39827;49.652;18.770;2023-05-03T00:35:17;74384.16;;;-149.71;81.30
53916;BME280;39827;49.652;18.770;2023-05-03T00:37:43;74380.16;;;-149.71;81.11
53916;BME280;39827;49.652;18.770;2023-05-03T00:40:08;74380.16;;;-149.71;81.13
53916;BME280;39827;49.652;18.770;2023-05-03T00:42:35;74380.16;;;-149.71;80.90
53916;BME280;39827;49.652;18.770;2023-05-03T00:45:04;74380.16;;;-149.71;80.85
53916;BME280;39827;49.652;18.770;2023-05-03T00:47:30;74376.13;;;-149.71;80.73
53916;BME280;39827;49.652;18.770;2023-05-03T00:49:56;74382.16;;;-149.71;80.72
53916;BME280;39827;49.652;18.770;2023-05-03T00:52:21;74376.13;;;-149.71;80.93
53916;BME280;39827;49.652;18.770;2023-05-03T00:54:47;74382.16;;;-149.71;81.17
53916;BME280;39827;49.652;18.770;2023-05-03T00:57:13;74376.13;;;-149.71;81.17
53916;BME280;39827;49.652;18.770;2023-05-03T00:59:39;74396.22;;;-149.71;81.75
53916;BME280;39827;49.652;18.770;2023-05-03T01:02:04;74404.25;;;-149.71;81.76
53916;BME280;39827;49.652;18.770;2023-05-03T01:04:30;74396.22;;;-149.71;81.64
53916;BME280;39827;49.652;18.770;2023-05-03T01:09:30;74396.22;;;-149.71;81.06
53916;BME280;39827;49.652;18.770;2023-05-03T01:17:40;74390.19;;;-149.71;80.65
53916;BME280;39827;49.652;18.770;2023-05-03T01:20:08;74380.16;;;-149.71;80.65
53916;BME280;39827;49.652;18.770;2023-05-03T01:22:48;74380.16;;;-149.71;80.56
53916;BME280;39827;49.652;18.770;2023-05-03T01:25:15;74392.19;;;-149.71;80.81
53916;BME280;39827;49.652;18.770;2023-05-03T01:27:41;74384.16;;;-149.71;81.12
53916;BME280;39827;49.652;18.770;2023-05-03T01:30:08;74392.19;;;-149.71;81.50
53916;BME280;39827;49.652;18.770;2023-05-03T01:35:48;74380.16;;;-149.71;80.94
53916;BME280;39827;49.652;18.770;2023-05-03T01:38:17;74388.19;;;-149.71;80.91
53916;BME280;39827;49.652;18.770;2023-05-03T01:40:49;74372.13;;;-149.71;80.81
53916;BME280;39827;49.652;18.770;2023-05-03T01:43:17;74384.16;;;-149.71;81.05
53916;BME280;39827;49.652;18.770;2023-05-03T01:45:43;74376.13;;;-149.71;81.00
53916;BME280;39827;49.652;18.770;2023-05-03T01:48:13;74374.13;;;-149.71;81.01
53916;BME280;39827;49.652;18.770;2023-05-03T01:50:38;74382.16;;;-149.71;81.10
53916;BME280;39827;49.652;18.770;2023-05-03T01:53:04;74392.19;;;-149.71;81.05
53916;BME280;39827;49.652;18.770;2023-05-03T01:55:29;74392.19;;;-149.71;81.00
53916;BME280;39827;49.652;18.770;2023-05-03T01:57:54;74408.28;;;-149.71;82.02
53916;BME280;39827;49.652;18.770;2023-05-03T02:00:20;74406.28;;;-149.71;82.22
53916;BME280;39827;49.652;18.770;2023-05-03T02:02:45;74404.25;;;-149.71;82.59
53916;BME280;39827;49.652;18.770;2023-05-03T02:05:11;74412.28;;;-149.71;82.58
53916;BME280;39827;49.652;18.770;2023-05-03T02:07:36;74390.19;;;-149.71;81.93
53916;BME280;39827;49.652;18.770;2023-05-03T02:10:06;74380.16;;;-149.71;81.77
53916;BME280;39827;49.652;18.770;2023-05-03T02:12:31;74384.16;;;-149.71;81.41
53916;BME280;39827;49.652;18.770;2023-05-03T02:14:56;74390.19;;;-149.71;81.37
53916;BME280;39827;49.652;18.770;2023-05-03T02:17:22;74386.19;;;-149.71;81.39
53916;BME280;39827;49.652;18.770;2023-05-03T02:19:51;74372.13;;;-149.71;80.83
53916;BME280;39827;49.652;18.770;2023-05-03T02:22:16;74396.22;;;-149.71;81.10
53916;BME280;39827;49.652;18.770;2023-05-03T02:24:42;74402.25;;;-149.71;80.85
53916;BME280;39827;49.652;18.770;2023-05-03T02:27:07;74402.25;;;-149.71;81.25
53916;BME280;39827;49.652;18.770;2023-05-03T02:29:33;74408.28;;;-149.71;81.22
53916;BME280;39827;49.652;18.770;2023-05-03T02:31:58;74398.22;;;-149.71;80.99
53916;BME280;39827;49.652;18.770;2023-05-03T02:34:25;74412.28;;;-149.71;81.42
53916;BME280;39827;49.652;18.770;2023-05-03T02:36:50;74422.34;;;-149.71;81.67
53916;BME280;39827;49.652;18.770;2023-05-03T02:39:16;74424.34;;;-149.71;81.41
53916;BME280;39827;49.652;18.770;2023-05-03T02:41:41;74424.34;;;-149.71;81.75
53916;BME280;39827;49.652;18.770;2023-05-03T02:44:07;74440.44;;;-149.71;82.08
53916;BME280;39827;49.652;18.770;2023-05-03T02:46:32;74432.38;;;-149.71;81.91
53916;BME280;39827;49.652;18.770;2023-05-03T02:48:58;74416.31;;;-149.71;81.95
53916;BME280;39827;49.652;18.770;2023-05-03T02:51:23;74416.31;;;-149.71;82.21
53916;BME280;39827;49.652;18.770;2023-05-03T02:53:48;74436.41;;;-149.71;82.82
53916;BME280;39827;49.652;18.770;2023-05-03T02:56:14;74424.34;;;-149.71;82.57
53916;BME280;39827;49.652;18.770;2023-05-03T02:58:39;74430.38;;;-149.71;82.09
53916;BME280;39827;49.652;18.770;2023-05-03T03:01:05;74414.31;;;-149.71;81.86
53916;BME280;39827;49.652;18.770;2023-05-03T03:03:30;74412.28;;;-149.71;81.88
53916;BME280;39827;49.652;18.770;2023-05-03T03:05:55;74420.34;;;-149.71;82.10
53916;BME280;39827;49.652;18.770;2023-05-03T03:08:21;74412.28;;;-149.71;81.83
53916;BME280;39827;49.652;18.770;2023-05-03T03:10:47;74408.28;;;-149.71;81.53
53916;BME280;39827;49.652;18.770;2023-05-03T03:13:12;74416.31;;;-149.71;81.51
53916;BME280;39827;49.652;18.770;2023-05-03T03:15:38;74426.38;;;-149.71;81.21
53916;BME280;39827;49.652;18.770;2023-05-03T03:18:03;74416.31;;;-149.71;81.33
53916;BME280;39827;49.652;18.770;2023-05-03T03:20:29;74418.31;;;-149.71;81.10
53916;BME280;39827;49.652;18.770;2023-05-03T03:22:54;74414.31;;;-149.71;80.79
53916;BME280;39827;49.652;18.770;2023-05-03T03:25:20;74420.34;;;-149.71;80.81
53916;BME280;39827;49.652;18.770;2023-05-03T03:27:45;74412.28;;;-149.71;80.79
53916;BME280;39827;49.652;18.770;2023-05-03T03:30:11;74426.38;;;-149.71;80.96
53916;BME280;39827;49.652;18.770;2023-05-03T03:32:36;74420.34;;;-149.71;81.01
53916;BME280;39827;49.652;18.770;2023-05-03T03:35:02;74416.31;;;-149.71;80.91
53916;BME280;39827;49.652;18.770;2023-05-03T03:37:27;74440.44;;;-149.71;81.43
53916;BME280;39827;49.652;18.770;2023-05-03T03:39:52;74436.41;;;-149.71;81.30
53916;BME280;39827;49.652;18.770;2023-05-03T03:42:18;74452.47;;;-149.71;81.56
53916;BME280;39827;49.652;18.770;2023-05-03T03:44:44;74460.53;;;-149.71;81.84
53916;BME280;39827;49.652;18.770;2023-05-03T03:47:10;74472.56;;;-149.71;81.94
53916;BME280;39827;49.652;18.770;2023-05-03T03:49:35;74458.50;;;-149.71;81.88
53916;BME280;39827;49.652;18.770;2023-05-03T03:52:00;74454.50;;;-149.71;81.86
53916;BME280;39827;49.652;18.770;2023-05-03T03:54:26;74450.47;;;-149.71;81.41
53916;BME280;39827;49.652;18.770;2023-05-03T03:56:51;74456.50;;;-149.71;81.96
53916;BME280;39827;49.652;18.770;2023-05-03T03:59:17;74450.47;;;-149.71;81.86
53916;BME280;39827;49.652;18.770;2023-05-03T04:01:42;74436.41;;;-149.71;81.30
53916;BME280;39827;49.652;18.770;2023-05-03T04:04:09;74462.53;;;-149.71;82.17
53916;BME280;39827;49.652;18.770;2023-05-03T04:06:34;74462.53;;;-149.71;82.60
53916;BME280;39827;49.652;18.770;2023-05-03T04:09:00;74458.50;;;-149.71;82.71
53916;BME280;39827;49.652;18.770;2023-05-03T04:11:25;74448.47;;;-149.71;82.64
53916;BME280;39827;49.652;18.770;2023-05-03T04:13:50;74440.44;;;-149.71;82.15
53916;BME280;39827;49.652;18.770;2023-05-03T04:16:16;74452.47;;;-149.71;82.39
53916;BME280;39827;49.652;18.770;2023-05-03T04:18:42;74448.47;;;-149.71;82.20
53916;BME280;39827;49.652;18.770;2023-05-03T04:21:07;74444.44;;;-149.71;82.01
53916;BME280;39827;49.652;18.770;2023-05-03T04:23:33;74442.44;;;-149.71;81.92
53916;BME280;39827;49.652;18.770;2023-05-03T04:25:58;74448.47;;;-149.71;81.65
53916;BME280;39827;49.652;18.770;2023-05-03T04:28:23;74422.34;;;-149.71;81.41
53916;BME280;39827;49.652;18.770;2023-05-03T04:30:51;74432.38;;;-149.71;80.99
53916;BME280;39827;49.652;18.770;2023-05-03T04:33:18;74426.38;;;-149.71;81.10
53916;BME280;39827;49.652;18.770;2023-05-03T04:35:43;74410.28;;;-149.71;81.01
53916;BME280;39827;49.652;18.770;2023-05-03T04:38:08;74420.34;;;-149.71;80.96
53916;BME280;39827;49.652;18.770;2023-05-03T04:40:34;74444.44;;;-149.71;81.25
53916;BME280;39827;49.652;18.770;2023-05-03T04:43:00;74460.53;;;-149.71;82.19
53916;BME280;39827;49.652;18.770;2023-05-03T04:45:25;74438.41;;;-149.71;81.77
53916;BME280;39827;49.652;18.770;2023-05-03T04:47:51;74424.34;;;-149.71;81.57
53916;BME280;39827;49.652;18.770;2023-05-03T04:50:17;74442.44;;;-149.71;81.79
53916;BME280;39827;49.652;18.770;2023-05-03T04:52:42;74434.41;;;-149.71;82.02
53916;BME280;39827;49.652;18.770;2023-05-03T04:55:08;74448.47;;;-149.71;82.50
53916;BME280;39827;49.652;18.770;2023-05-03T04:57:33;74444.44;;;-149.71;82.59
53916;BME280;39827;49.652;18.770;2023-05-03T04:59:59;74420.34;;;-149.71;81.63
53916;BME280;39827;49.652;18.770;2023-05-03T05:02:25;74448.47;;;-149.71;81.99
53916;BME280;39827;49.652;18.770;2023-05-03T05:04:52;74428.38;;;-149.71;81.69
53916;BME280;39827;49.652;18.770;2023-05-03T05:07:17;74426.38;;;-149.71;81.17
53916;BME280;39827;49.652;18.770;2023-05-03T05:09:43;74448.47;;;-149.71;81.60
53916;BME280;39827;49.652;18.770;2023-05-03T05:12:08;74438.41;;;-149.71;81.43
53916;BME280;39827;49.652;18.770;2023-05-03T05:14:34;74450.47;;;-149.71;81.48
53916;BME280;39827;49.652;18.770;2023-05-03T05:16:59;74448.47;;;-149.71;81.96
53916;BME280;39827;49.652;18.770;2023-05-03T05:19:25;74444.44;;;-149.71;81.69
53916;BME280;39827;49.652;18.770;2023-05-03T05:21:51;74440.44;;;-149.71;81.27
53916;BME280;39827;49.652;18.770;2023-05-03T05:24:16;74460.53;;;-149.71;82.24
53916;BME280;39827;49.652;18.770;2023-05-03T05:26:42;74442.44;;;-149.71;81.83
53916;BME280;39827;49.652;18.770;2023-05-03T05:29:08;74456.50;;;-149.71;82.16
53916;BME280;39827;49.652;18.770;2023-05-03T05:31:33;74444.44;;;-149.71;81.64
53916;BME280;39827;49.652;18.770;2023-05-03T05:34:00;74448.47;;;-149.71;81.17
53916;BME280;39827;49.652;18.770;2023-05-03T05:36:26;74444.44;;;-149.71;81.82
53916;BME280;39827;49.652;18.770;2023-05-03T05:38:51;74438.41;;;-149.71;81.43
53916;BME280;39827;49.652;18.770;2023-05-03T05:41:17;74442.44;;;-149.71;81.44
53916;BME280;39827;49.652;18.770;2023-05-03T05:43:42;74428.38;;;-149.71;81.65
53916;BME280;39827;49.652;18.770;2023-05-03T05:46:09;74438.41;;;-149.71;81.20
53916;BME280;39827;49.652;18.770;2023-05-03T05:48:34;74434.41;;;-149.71;80.67
53916;BME280;39827;49.652;18.770;2023-05-03T05:51:00;74428.38;;;-149.71;80.48
53916;BME280;39827;49.652;18.770;2023-05-03T05:53:25;74428.38;;;-149.71;80.77
53916;BME280;39827;49.652;18.770;2023-05-03T05:55:51;74434.41;;;-149.71;80.23
53916;BME280;39827;49.652;18.770;2023-05-03T05:58:16;74426.38;;;-149.71;80.37
53916;BME280;39827;49.652;18.770;2023-05-03T06:00:42;74420.34;;;-149.71;80.21
53916;BME280;39827;49.652;18.770;2023-05-03T06:03:07;74434.41;;;-149.71;80.81
53916;BME280;39827;49.652;18.770;2023-05-03T06:05:33;74434.41;;;-149.71;80.76
53916;BME280;39827;49.652;18.770;2023-05-03T06:07:58;74434.41;;;-149.71;80.69
53916;BME280;39827;49.652;18.770;2023-05-03T06:10:24;74420.34;;;-149.71;80.65
53916;BME280;39827;49.652;18.770;2023-05-03T06:12:49;74424.34;;;-149.71;81.31
53916;BME280;39827;49.652;18.770;2023-05-03T06:15:15;74394.22;;;-149.71;80.21
53916;BME280;39827;49.652;18.770;2023-05-03T06:17:41;74400.25;;;-149.71;80.05
53916;BME280;39827;49.652;18.770;2023-05-03T06:20:07;74404.25;;;-149.71;80.71
53916;BME280;39827;49.652;18.770;2023-05-03T06:22:41;74400.25;;;-149.71;80.93
53916;BME280;39827;49.652;18.770;2023-05-03T06:25:07;74388.19;;;-149.71;80.79
53916;BME280;39827;49.652;18.770;2023-05-03T06:27:32;74400.25;;;-149.71;80.67
53916;BME280;39827;49.652;18.770;2023-05-03T06:29:58;74402.25;;;-149.71;80.56
53916;BME280;39827;49.652;18.770;2023-05-03T06:32:23;74408.28;;;-149.71;80.78
53916;BME280;39827;49.652;18.770;2023-05-03T06:34:49;74398.22;;;-149.71;80.64
53916;BME280;39827;49.652;18.770;2023-05-03T06:37:15;74406.28;;;-149.71;80.38
53916;BME280;39827;49.652;18.770;2023-05-03T06:39:41;74406.28;;;-149.71;80.29
53916;BME280;39827;49.652;18.770;2023-05-03T06:42:06;74398.22;;;-149.71;80.50
53916;BME280;39827;49.652;18.770;2023-05-03T06:44:32;74396.22;;;-149.71;80.48
53916;BME280;39827;49.652;18.770;2023-05-03T06:46:58;74392.19;;;-149.71;80.07
53916;BME280;39827;49.652;18.770;2023-05-03T06:49:23;74386.19;;;-149.71;79.77
53916;BME280;39827;49.652;18.770;2023-05-03T06:51:49;74376.13;;;-149.71;79.85
53916;BME280;39827;49.652;18.770;2023-05-03T06:54:14;74386.19;;;-149.71;79.75
53916;BME280;39827;49.652;18.770;2023-05-03T06:56:39;74406.28;;;-149.71;80.06
53916;BME280;39827;49.652;18.770;2023-05-03T06:59:05;74374.13;;;-149.71;78.89
53916;BME280;39827;49.652;18.770;2023-05-03T07:01:32;74380.16;;;-149.71;79.08
53916;BME280;39827;49.652;18.770;2023-05-03T07:03:59;74370.09;;;-149.71;78.90
53916;BME280;39827;49.652;18.770;2023-05-03T07:06:24;74382.16;;;-149.71;79.79
53916;BME280;39827;49.652;18.770;2023-05-03T07:08:50;74392.19;;;-149.71;79.31
53916;BME280;39827;49.652;18.770;2023-05-03T07:11:17;74414.31;;;-149.71;79.49
53916;BME280;39827;49.652;18.770;2023-05-03T07:13:42;74472.56;;;-149.71;80.36
53916;BME280;39827;49.652;18.770;2023-05-03T07:16:08;74474.59;;;-149.71;80.50
53916;BME280;39827;49.652;18.770;2023-05-03T07:18:33;74482.63;;;-149.71;80.32
53916;BME280;39827;49.652;18.770;2023-05-03T07:20:59;74476.59;;;-149.71;80.41
53916;BME280;39827;49.652;18.770;2023-05-03T07:23:30;74478.59;;;-149.71;79.90
53916;BME280;39827;49.652;18.770;2023-05-03T07:25:55;74472.56;;;-149.71;80.03
53916;BME280;39827;49.652;18.770;2023-05-03T07:28:22;74472.56;;;-149.71;80.03
53916;BME280;39827;49.652;18.770;2023-05-03T07:30:47;74476.59;;;-149.71;79.95
53916;BME280;39827;49.652;18.770;2023-05-03T07:33:13;74474.59;;;-149.71;79.94
53916;BME280;39827;49.652;18.770;2023-05-03T07:35:38;74484.63;;;-149.71;80.56
53916;BME280;39827;49.652;18.770;2023-05-03T07:38:04;74472.56;;;-149.71;79.85
53916;BME280;39827;49.652;18.770;2023-05-03T07:40:29;74474.59;;;-149.71;79.54
53916;BME280;39827;49.652;18.770;2023-05-03T07:43:00;74480.59;;;-149.71;79.92
53916;BME280;39827;49.652;18.770;2023-05-03T07:45:25;74464.53;;;-149.71;79.83
53916;BME280;39827;49.652;18.770;2023-05-03T07:47:51;74476.59;;;-149.71;79.29
53916;BME280;39827;49.652;18.770;2023-05-03T07:50:17;74498.69;;;-149.71;78.84
53916;BME280;39827;49.652;18.770;2023-05-03T07:52:43;74500.69;;;-149.71;79.05
53916;BME280;39827;49.652;18.770;2023-05-03T07:55:08;74520.78;;;-149.71;78.93
53916;BME280;39827;49.652;18.770;2023-05-03T07:57:34;74516.78;;;-149.71;78.66
53916;BME280;39827;49.652;18.770;2023-05-03T08:00:00;74514.78;;;-149.71;78.96
53916;BME280;39827;49.652;18.770;2023-05-03T08:02:26;74510.75;;;-149.71;79.47
53916;BME280;39827;49.652;18.770;2023-05-03T08:04:51;74500.69;;;-149.71;78.72
53916;BME280;39827;49.652;18.770;2023-05-03T08:07:19;74506.72;;;-149.71;77.87
53916;BME280;39827;49.652;18.770;2023-05-03T08:09:44;74504.72;;;-149.71;78.31
53916;BME280;39827;49.652;18.770;2023-05-03T08:12:10;74500.69;;;-149.71;78.96
53916;BME280;39827;49.652;18.770;2023-05-03T08:14:35;74512.75;;;-149.71;78.46
53916;BME280;39827;49.652;18.770;2023-05-03T08:17:01;74506.72;;;-149.71;79.30
53916;BME280;39827;49.652;18.770;2023-05-03T08:19:29;74496.69;;;-149.71;79.26
53916;BME280;39827;49.652;18.770;2023-05-03T08:21:54;74512.75;;;-149.71;78.99
53916;BME280;39827;49.652;18.770;2023-05-03T08:24:20;74486.63;;;-149.71;78.71
53916;BME280;39827;49.652;18.770;2023-05-03T08:26:46;74470.56;;;-149.71;78.04
53916;BME280;39827;49.652;18.770;2023-05-03T08:29:13;74462.53;;;-149.71;78.17
53916;BME280;39827;49.652;18.770;2023-05-03T08:31:39;74464.53;;;-149.71;79.18
53916;BME280;39827;49.652;18.770;2023-05-03T08:34:05;74474.59;;;-149.71;77.40
53916;BME280;39827;49.652;18.770;2023-05-03T08:36:32;74472.56;;;-149.71;76.73
53916;BME280;39827;49.652;18.770;2023-05-03T08:38:57;74464.53;;;-149.71;76.77
53916;BME280;39827;49.652;18.770;2023-05-03T08:41:29;74466.53;;;-149.71;76.40
53916;BME280;39827;49.652;18.770;2023-05-03T08:43:56;74474.59;;;-149.71;77.44
53916;BME280;39827;49.652;18.770;2023-05-03T08:46:22;74488.66;;;-149.71;76.92
53916;BME280;39827;49.652;18.770;2023-05-03T08:48:51;74494.69;;;-149.71;77.08
53916;BME280;39827;49.652;18.770;2023-05-03T08:51:18;74474.59;;;-149.71;76.71
53916;BME280;39827;49.652;18.770;2023-05-03T08:53:44;74480.59;;;-149.71;76.61
53916;BME280;39827;49.652;18.770;2023-05-03T08:56:15;74478.59;;;-149.71;77.23
53916;BME280;39827;49.652;18.770;2023-05-03T08:58:41;74486.63;;;-149.71;75.89
53916;BME280;39827;49.652;18.770;2023-05-03T09:01:07;74490.66;;;-149.71;76.74
53916;BME280;39827;49.652;18.770;2023-05-03T09:03:34;74520.78;;;-149.71;76.29
53916;BME280;39827;49.652;18.770;2023-05-03T09:06:00;74520.78;;;-149.71;77.88
53916;BME280;39827;49.652;18.770;2023-05-03T09:08:29;74538.88;;;-149.71;76.89
53916;BME280;39827;49.652;18.770;2023-05-03T09:10:54;74530.84;;;-149.71;76.65
53916;BME280;39827;49.652;18.770;2023-05-03T09:13:20;74532.84;;;-149.71;77.84
53916;BME280;39827;49.652;18.770;2023-05-03T09:15:56;74542.91;;;-149.71;76.47
53916;BME280;39827;49.652;18.770;2023-05-03T09:18:22;74556.97;;;-149.71;76.40
53916;BME280;39827;49.652;18.770;2023-05-03T09:20:49;74554.94;;;-149.71;77.62
53916;BME280;39827;49.652;18.770;2023-05-03T09:23:28;74540.88;;;-149.71;76.26
53916;BME280;39827;49.652;18.770;2023-05-03T09:25:55;74526.81;;;-149.71;76.29
53916;BME280;39827;49.652;18.770;2023-05-03T09:28:21;74540.88;;;-149.71;76.89
53916;BME280;39827;49.652;18.770;2023-05-03T09:30:47;74508.75;;;-149.71;76.09
53916;BME280;39827;49.652;18.770;2023-05-03T09:33:13;74514.78;;;-149.71;75.58
53916;BME280;39827;49.652;18.770;2023-05-03T09:36:03;74506.72;;;-149.71;76.08
53916;BME280;39827;49.652;18.770;2023-05-03T09:38:31;74504.72;;;-149.71;75.77
53916;BME280;39827;49.652;18.770;2023-05-03T09:40:57;74504.72;;;-149.71;76.59
53916;BME280;39827;49.652;18.770;2023-05-03T09:43:23;74506.72;;;-149.71;76.09
53916;BME280;39827;49.652;18.770;2023-05-03T09:45:48;74522.81;;;-149.71;75.08
53916;BME280;39827;49.652;18.770;2023-05-03T09:48:15;74528.84;;;-149.71;76.63
53916;BME280;39827;49.652;18.770;2023-05-03T09:50:42;74516.78;;;-149.71;75.54
53916;BME280;39827;49.652;18.770;2023-05-03T09:53:09;74524.81;;;-149.71;76.89
53916;BME280;39827;49.652;18.770;2023-05-03T09:55:36;74518.78;;;-149.71;74.93
53916;BME280;39827;49.652;18.770;2023-05-03T09:58:03;74528.84;;;-149.71;74.72
53916;BME280;39827;49.652;18.770;2023-05-03T10:00:39;74538.88;;;-149.71;77.76
53916;BME280;39827;49.652;18.770;2023-05-03T10:03:07;74526.81;;;-149.71;77.16
53916;BME280;39827;49.652;18.770;2023-05-03T10:05:37;74530.84;;;-149.71;76.82
53916;BME280;39827;49.652;18.770;2023-05-03T10:08:05;74540.88;;;-149.71;75.81
53916;BME280;39827;49.652;18.770;2023-05-03T10:10:32;74554.94;;;-149.71;76.50
53916;BME280;39827;49.652;18.770;2023-05-03T10:13:01;74552.94;;;-149.71;76.54
53916;BME280;39827;49.652;18.770;2023-05-03T10:15:28;74548.94;;;-149.71;76.71
53916;BME280;39827;49.652;18.770;2023-05-03T10:17:57;74540.88;;;-149.71;76.96
53916;BME280;39827;49.652;18.770;2023-05-03T10:20:34;74565.00;;;-149.71;75.73
53916;BME280;39827;49.652;18.770;2023-05-03T10:25:37;74546.91;;;-149.71;76.33
53916;BME280;39827;49.652;18.770;2023-05-03T10:28:04;74585.09;;;-149.71;76.92
53916;BME280;39827;49.652;18.770;2023-05-03T10:30:31;74567.00;;;-149.71;76.62
53916;BME280;39827;49.652;18.770;2023-05-03T10:35:49;74560.97;;;-149.71;76.65
53916;BME280;39827;49.652;18.770;2023-05-03T10:38:22;74558.97;;;-149.71;76.87
53916;BME280;39827;49.652;18.770;2023-05-03T10:40:48;74567.00;;;-149.71;76.75
53916;BME280;39827;49.652;18.770;2023-05-03T10:45:59;74542.91;;;-149.71;77.37
53916;BME280;39827;49.652;18.770;2023-05-03T10:48:25;74548.94;;;-149.71;77.06
53916;BME280;39827;49.652;18.770;2023-05-03T10:50:52;74542.91;;;-149.71;77.57
53916;BME280;39827;49.652;18.770;2023-05-03T10:53:48;74524.81;;;-149.71;77.03
53916;BME280;39827;49.652;18.770;2023-05-03T10:56:13;74546.91;;;-149.71;77.05
53916;BME280;39827;49.652;18.770;2023-05-03T10:58:49;74540.88;;;-149.71;76.91
53916;BME280;39827;49.652;18.770;2023-05-03T11:01:17;74560.97;;;-149.71;77.29
53916;BME280;39827;49.652;18.770;2023-05-03T11:04:11;74544.91;;;-149.71;77.61
53916;BME280;39827;49.652;18.770;2023-05-03T11:06:39;74546.91;;;-149.71;77.66
53916;BME280;39827;49.652;18.770;2023-05-03T11:09:10;74558.97;;;-149.71;77.79
53916;BME280;39827;49.652;18.770;2023-05-03T11:11:39;74550.94;;;-149.71;77.36
53916;BME280;39827;49.652;18.770;2023-05-03T11:14:06;74563.00;;;-149.71;77.25
53916;BME280;39827;49.652;18.770;2023-05-03T11:16:32;74565.00;;;-149.71;77.87
53916;BME280;39827;49.652;18.770;2023-05-03T11:18:58;74554.94;;;-149.71;77.66
53916;BME280;39827;49.652;18.770;2023-05-03T11:21:24;74556.97;;;-149.71;77.52
53916;BME280;39827;49.652;18.770;2023-05-03T11:23:50;74544.91;;;-149.71;77.53
53916;BME280;39827;49.652;18.770;2023-05-03T11:26:15;74546.91;;;-149.71;77.75
53916;BME280;39827;49.652;18.770;2023-05-03T11:28:42;74536.88;;;-149.71;76.89
53916;BME280;39827;49.652;18.770;2023-05-03T11:31:08;74532.84;;;-149.71;76.69
53916;BME280;39827;49.652;18.770;2023-05-03T11:33:38;74528.84;;;-149.71;77.00
53916;BME280;39827;49.652;18.770;2023-05-03T11:36:05;74540.88;;;-149.71;76.18
53916;BME280;39827;49.652;18.770;2023-05-03T11:38:32;74542.91;;;-149.71;76.20
53916;BME280;39827;49.652;18.770;2023-05-03T11:40:58;74532.84;;;-149.71;76.87
53916;BME280;39827;49.652;18.770;2023-05-03T11:43:25;74530.84;;;-149.71;76.96
53916;BME280;39827;49.652;18.770;2023-05-03T11:45:53;74520.78;;;-149.71;76.97
53916;BME280;39827;49.652;18.770;2023-05-03T11:48:20;74532.84;;;-149.71;77.27
53916;BME280;39827;49.652;18.770;2023-05-03T11:50:51;74514.78;;;-149.71;77.24
53916;BME280;39827;49.652;18.770;2023-05-03T11:53:21;74514.78;;;-149.71;76.31
53916;BME280;39827;49.652;18.770;2023-05-03T11:55:49;74498.69;;;-149.71;77.16
53916;BME280;39827;49.652;18.770;2023-05-03T11:58:25;74484.63;;;-149.71;77.06
53916;BME280;39827;49.652;18.770;2023-05-03T12:00:52;74464.53;;;-149.71;76.39
53916;BME280;39827;49.652;18.770;2023-05-03T12:05:45;74482.63;;;-149.71;75.95
53916;BME280;39827;49.652;18.770;2023-05-03T12:08:10;74496.69;;;-149.71;73.56
53916;BME280;39827;49.652;18.770;2023-05-03T12:10:36;74500.69;;;-149.71;73.38
53916;BME280;39827;49.652;18.770;2023-05-03T12:13:02;74482.63;;;-149.71;74.49
53916;BME280;39827;49.652;18.770;2023-05-03T12:15:37;74484.63;;;-149.71;74.44
53916;BME280;39827;49.652;18.770;2023-05-03T12:18:08;74486.63;;;-149.71;74.79
53916;BME280;39827;49.652;18.770;2023-05-03T12:20:35;74496.69;;;-149.71;75.64
53916;BME280;39827;49.652;18.770;2023-05-03T12:23:05;74516.78;;;-149.71;75.53
53916;BME280;39827;49.652;18.770;2023-05-03T12:25:33;74516.78;;;-149.71;74.78
53916;BME280;39827;49.652;18.770;2023-05-03T12:28:01;74508.75;;;-149.71;75.48
53916;BME280;39827;49.652;18.770;2023-05-03T12:30:27;74520.78;;;-149.71;74.85
53916;BME280;39827;49.652;18.770;2023-05-03T12:32:53;74518.78;;;-149.71;75.09
53916;BME280;39827;49.652;18.770;2023-05-03T12:35:19;74500.69;;;-149.71;75.68
53916;BME280;39827;49.652;18.770;2023-05-03T12:37:46;74500.69;;;-149.71;76.06
53916;BME280;39827;49.652;18.770;2023-05-03T12:40:12;74514.78;;;-149.71;74.67
53916;BME280;39827;49.652;18.770;2023-05-03T12:42:38;74510.75;;;-149.71;73.59
53916;BME280;39827;49.652;18.770;2023-05-03T12:45:05;74496.69;;;-149.71;75.12
53916;BME280;39827;49.652;18.770;2023-05-03T12:47:30;74496.69;;;-149.71;75.41
53916;BME280;39827;49.652;18.770;2023-05-03T12:49:56;74500.69;;;-149.71;74.92